EST,Max TemperatureF,Mean TemperatureF,Min TemperatureF,Max Dew PointF,MeanDew PointF,Min DewpointF,Max Humidity, Mean Humidity, Min Humidity, Max Sea Level PressureIn, Mean Sea Level PressureIn, Min Sea Level PressureIn, Max VisibilityMiles, Mean VisibilityMiles, Min VisibilityMiles, Max Wind SpeedMPH, Mean Wind SpeedMPH, Max Gust SpeedMPH,PrecipitationIn, CloudCover, Events, WindDirDegrees
2013-2-1,26,22,19,10,5,0,51,43,37,30.07,29.80,29.58,10,10,10,17,11,28,0.00,4,,282
2013-2-2,26,18,10,12,4,0,73,48,37,30.20,30.08,30.01,10,10,8,14,6,21,0.00,2,,217
2013-2-3,28,20,12,16,11,9,86,65,43,30.02,29.86,29.72,10,10,10,6,1,,0.00,5,,319
2013-2-4,26,20,14,12,6,1,86,55,36,29.91,29.79,29.71,10,10,10,17,4,26,0.00,4,,277
2013-2-5,28,19,10,18,8,1,85,59,40,30.00,29.93,29.90,10,10,8,8,3,,0.00,3,,201
2013-2-6,35,29,21,21,13,0,86,58,31,30.29,30.04,29.90,10,10,4,14,4,23,0.00,4,,252
2013-2-7,26,17,8,3,0,-4,73,42,29,30.53,30.43,30.29,10,10,10,10,3,,0.00,3,,357
2013-2-8,24,20,17,16,12,-2,86,69,33,30.44,30.13,29.76,10,6,0,21,6,29,0.01,7,,32
2013-2-9,21,16,12,16,7,-4,93,65,48,30.25,29.95,29.75,10,5,0,29,17,37,0.06,4,,357
2013-2-10,33,13,-7,10,1,-11,92,58,22,30.45,30.35,30.25,10,10,7,12,4,,0.00,0,,2
2013-2-11,33,20,8,32,20,3,100,87,73,30.32,29.95,29.64,10,4,0,5,0,,0.22,6,,15
2013-2-12,39,36,32,32,26,21,93,69,56,29.87,29.73,29.63,10,9,1,14,5,21,0.01,8,,250
2013-2-13,37,32,26,21,20,18,80,60,45,29.86,29.80,29.73,10,10,10,9,3,,0.00,6,,276
2013-2-14,41,29,17,21,19,12,93,71,39,29.96,29.86,29.71,10,9,1,8,1,,0.00,0,,281
2013-2-15,48,32,17,27,22,12,93,71,37,29.97,29.93,29.88,10,8,2,13,2,18,0.00,2,,220
2013-2-16,35,30,24,28,20,3,93,66,37,29.97,29.90,29.78,10,8,1,18,5,21,0.00,4,,354
2013-2-17,23,18,12,3,0,-6,53,44,38,29.75,29.62,29.50,10,10,10,26,16,37,0.00,4,,333
2013-2-18,28,19,10,3,-3,-8,67,41,21,30.13,29.99,29.76,10,10,10,20,10,30,0.00,0,,301
2013-2-19,44,28,12,36,16,1,100,66,38,30.16,29.92,29.57,10,8,1,15,2,29,0.08,4,,177
2013-2-20,35,29,23,34,16,9,93,59,40,29.78,29.66,29.56,10,9,1,15,6,28,0.05,6,,274
2013-2-21,26,22,19,14,9,5,68,53,43,30.26,29.93,29.77,10,10,10,20,9,31,0.00,3,,324
2013-2-22,39,27,15,21,17,10,86,59,39,30.40,30.32,30.28,10,10,9,12,3,,0.00,2,,160
2013-2-23,35,32,30,30,26,19,93,76,60,30.30,30.13,29.92,10,8,1,10,2,,0.03,8,,177
2013-2-24,35,34,32,32,30,28,93,87,81,29.91,29.82,29.75,10,6,1,12,5,,0.20,8,,8
2013-2-25,35,30,24,32,28,21,93,88,80,30.24,30.10,29.92,10,5,0,5,0,,0.00,7,,0
2013-2-26,39,34,28,32,27,23,100,77,56,30.33,30.26,30.14,10,6,0,9,1,16,0.00,7,,132
2013-2-27,37,35,33,34,30,25,87,80,65,30.14,29.83,29.62,10,7,1,13,5,24,0.30,8,,42
2013-2-28,39,34,30,32,29,28,93,84,75,29.62,29.60,29.56,10,10,4,5,0,,0.00,7,,197